Time;durP1;ratioP1;P1;durP2;ratioP2;P2;SDS_P1;SDS_P2;PMS_P1;PMS_P2;Temp;Humidity;BMP_temperature;BMP_pressure;BME280_temperature;BME280_humidity;BME280_pressure;Samples;Min_cycle;Max_cycle;Signal;HPM_P1;HPM_P2
2023/08/26 00:01:25;;;;;;;7.80;7.13;;;23.40;98.20;;;;;;4986801;28;20455;-71
2023/08/26 00:03:53;;;;;;;7.77;7.07;;;23.30;98.20;;;;;;4987587;28;20463;-71
2023/08/26 00:06:19;;;;;;;7.10;6.50;;;23.30;98.20;;;;;;5005218;28;20425;-70
2023/08/26 00:08:52;;;;;;;7.10;6.50;;;23.30;98.20;;;;;;4986977;28;20483;-71
2023/08/26 00:11:18;;;;;;;7.87;6.97;;;23.30;98.20;;;;;;4987301;28;20432;-70
2023/08/26 00:13:44;;;;;;;9.63;7.27;;;23.30;98.20;;;;;;5005145;28;20511;-72
2023/08/26 00:16:12;;;;;;;7.93;7.13;;;23.30;98.20;;;;;;4986863;28;20459;-69
2023/08/26 00:18:38;;;;;;;10.17;7.40;;;23.30;98.20;;;;;;5004614;28;20523;-71
2023/08/26 00:21:07;;;;;;;7.40;6.80;;;23.30;98.10;;;;;;5004880;28;21007;-70
2023/08/26 00:23:35;;;;;;;7.93;6.93;;;23.30;98.20;;;;;;5004689;28;20537;-71
2023/08/26 00:26:01;;;;;;;7.90;7.20;;;23.30;98.20;;;;;;4986918;28;20573;-71
2023/08/26 00:28:27;;;;;;;6.90;6.37;;;23.30;98.10;;;;;;5004537;28;21438;-70
2023/08/26 00:31:02;;;;;;;8.20;7.40;;;23.30;98.10;;;;;;4987190;28;20941;-69
2023/08/26 00:33:28;;;;;;;8.53;7.83;;;23.30;98.10;;;;;;4970808;28;21004;-71
2023/08/26 00:35:54;;;;;;;7.60;6.80;;;23.30;98.10;;;;;;4987442;28;20475;-71
2023/08/26 00:38:20;;;;;;;7.10;6.40;;;23.30;98.10;;;;;;4955348;28;21146;-71
2023/08/26 00:40:46;;;;;;;7.43;6.70;;;23.30;98.10;;;;;;4987079;28;21000;-70
2023/08/26 00:43:14;;;;;;;7.83;7.10;;;23.30;98.10;;;;;;4986522;28;20948;-70
2023/08/26 00:45:43;;;;;;;6.60;6.03;;;23.30;98.00;;;;;;4986563;28;21326;-70
2023/08/26 00:48:11;;;;;;;9.37;6.33;;;23.20;98.00;;;;;;5004388;28;20482;-71
2023/08/26 00:50:42;;;;;;;7.23;6.60;;;23.20;98.00;;;;;;4986296;28;20514;-71
2023/08/26 00:53:12;;;;;;;7.00;6.30;;;23.30;98.00;;;;;;4986223;28;20431;-71
2023/08/26 00:55:42;;;;;;;7.17;6.50;;;23.20;98.00;;;;;;4970032;28;21140;-69
2023/08/26 00:58:10;;;;;;;6.27;5.67;;;23.20;98.00;;;;;;4970026;28;20460;-71
2023/08/26 01:00:42;;;;;;;7.17;6.57;;;23.20;98.00;;;;;;4986517;28;20432;-71
2023/08/26 01:03:11;;;;;;;7.80;7.00;;;23.20;98.00;;;;;;4970563;28;20494;-70
2023/08/26 01:05:36;;;;;;;6.80;6.20;;;23.20;98.00;;;;;;4986443;28;20435;-69
2023/08/26 01:08:06;;;;;;;6.47;5.93;;;23.20;97.90;;;;;;4970026;28;20558;-70
2023/08/26 01:10:38;;;;;;;6.93;6.33;;;23.20;97.90;;;;;;4970308;28;20516;-70
2023/08/26 01:13:12;;;;;;;6.87;6.17;;;23.20;97.90;;;;;;4985988;28;20408;-70
2023/08/26 01:15:44;;;;;;;6.77;6.27;;;23.20;97.90;;;;;;4985884;28;20796;-71
2023/08/26 01:18:13;;;;;;;6.40;5.90;;;23.20;97.90;;;;;;4986051;28;20505;-71
2023/08/26 01:20:41;;;;;;;6.77;6.17;;;23.20;97.90;;;;;;4986182;28;20415;-71
2023/08/26 01:23:28;;;;;;;5.90;5.50;;;23.10;97.90;;;;;;4985642;28;20435;-70
2023/08/26 01:25:55;;;;;;;6.67;5.93;;;23.10;97.90;;;;;;4986162;28;20643;-69
2023/08/26 01:28:21;;;;;;;6.80;6.20;;;23.20;97.90;;;;;;4986217;28;20501;-71
2023/08/26 01:30:49;;;;;;;6.07;5.57;;;23.10;97.90;;;;;;4969908;28;20447;-71
2023/08/26 01:33:24;;;;;;;6.80;6.30;;;23.10;97.80;;;;;;4969841;28;20560;-70
2023/08/26 01:35:58;;;;;;;7.27;6.57;;;23.10;97.80;;;;;;4969450;28;20440;-71
2023/08/26 01:38:25;;;;;;;7.37;6.00;;;23.10;97.80;;;;;;4970089;28;20442;-70
2023/08/26 01:40:54;;;;;;;7.17;6.57;;;23.10;97.80;;;;;;5003586;28;20470;-71
2023/08/26 01:43:23;;;;;;;8.07;7.27;;;23.10;97.80;;;;;;4969896;28;20426;-70
2023/08/26 01:45:54;;;;;;;7.83;7.13;;;23.10;97.80;;;;;;4969775;28;20448;-71
2023/08/26 01:48:25;;;;;;;7.70;7.10;;;23.10;97.70;;;;;;4969899;28;20483;-70
2023/08/26 01:50:52;;;;;;;8.43;7.63;;;23.10;97.60;;;;;;4969797;28;20441;-71
2023/08/26 01:53:20;;;;;;;7.50;6.80;;;23.10;97.50;;;;;;4985548;28;20438;-70
2023/08/26 01:55:50;;;;;;;7.80;7.10;;;23.10;97.40;;;;;;4970723;28;20796;-70
2023/08/26 01:58:16;;;;;;;6.90;6.30;;;23.00;97.10;;;;;;4970360;28;20498;-71
2023/08/26 02:00:44;;;;;;;6.60;5.30;;;23.00;97.00;;;;;;4970449;28;21291;-71
2023/08/26 02:03:13;;;;;;;7.03;6.20;;;23.00;96.90;;;;;;4970912;28;20448;-70
2023/08/26 02:05:44;;;;;;;5.83;5.30;;;23.00;96.80;;;;;;4986737;28;20451;-70
2023/08/26 02:08:14;;;;;;;6.57;5.97;;;23.00;96.70;;;;;;4986230;28;20563;-71
2023/08/26 02:10:44;;;;;;;5.83;5.30;;;23.00;96.60;;;;;;4976524;28;20506;-70
2023/08/26 02:13:12;;;;;;;9.70;5.03;;;22.90;96.40;;;;;;5003787;28;20401;-70
2023/08/26 02:15:38;;;;;;;5.40;4.90;;;22.90;96.30;;;;;;5003176;28;20531;-70
2023/08/26 02:18:07;;;;;;;5.67;5.13;;;22.90;96.30;;;;;;4985917;28;20546;-70
2023/08/26 02:20:33;;;;;;;5.50;4.90;;;22.90;96.30;;;;;;4985212;28;20515;-70
2023/08/26 02:23:02;;;;;;;4.90;4.47;;;22.90;96.30;;;;;;5000547;28;20417;-71
2023/08/26 02:25:31;;;;;;;4.60;4.30;;;22.90;96.20;;;;;;4985556;28;20444;-70
2023/08/26 02:27:59;;;;;;;4.93;4.53;;;22.90;96.20;;;;;;4985450;28;20503;-69
2023/08/26 02:30:25;;;;;;;5.07;4.63;;;22.80;96.10;;;;;;4969647;28;20468;-71
2023/08/26 02:32:52;;;;;;;4.73;4.33;;;22.80;96.00;;;;;;4986336;28;21080;-70
2023/08/26 02:35:20;;;;;;;4.13;3.80;;;22.80;95.70;;;;;;4986219;28;20428;-71
2023/08/26 02:37:47;;;;;;;4.67;4.23;;;22.80;95.40;;;;;;4984840;28;20412;-70
2023/08/26 02:40:16;;;;;;;4.90;4.50;;;22.80;95.60;;;;;;4969354;28;20439;-70
2023/08/26 02:42:42;;;;;;;4.07;3.67;;;22.80;95.60;;;;;;4969569;28;20440;-70
2023/08/26 02:45:08;;;;;;;4.33;3.87;;;22.70;95.30;;;;;;4969392;28;20502;-71
2023/08/26 02:47:39;;;;;;;4.43;4.13;;;22.70;95.30;;;;;;4986127;28;20963;-71
2023/08/26 02:50:07;;;;;;;4.30;3.90;;;22.80;95.40;;;;;;5002294;28;20451;-70
2023/08/26 02:52:33;;;;;;;4.20;3.80;;;22.80;95.30;;;;;;4984585;28;20431;-70
2023/08/26 02:55:00;;;;;;;4.43;3.60;;;22.70;95.20;;;;;;4984777;28;20506;-71
2023/08/26 02:57:26;;;;;;;3.70;3.40;;;22.70;95.30;;;;;;4969053;28;20519;-70
2023/08/26 03:00:25;;;;;;;4.23;3.53;;;22.70;95.20;;;;;;4969174;28;20491;-71
2023/08/26 03:02:51;;;;;;;3.57;3.27;;;22.60;95.10;;;;;;4939425;29;21199;-71
2023/08/26 03:05:19;;;;;;;3.57;3.27;;;22.60;95.10;;;;;;4944236;28;20526;-71
2023/08/26 03:07:45;;;;;;;4.17;3.43;;;22.60;94.90;;;;;;4943121;29;20459;-71
2023/08/26 03:10:11;;;;;;;3.63;3.33;;;22.60;94.70;;;;;;4943025;29;20459;-71
2023/08/26 03:12:37;;;;;;;3.50;3.20;;;22.60;94.50;;;;;;4943136;28;20211;-71
2023/08/26 03:15:04;;;;;;;4.40;4.00;;;22.60;94.50;;;;;;4911074;29;20455;-71
2023/08/26 03:17:32;;;;;;;3.47;3.23;;;22.60;94.60;;;;;;4942896;29;20434;-71
2023/08/26 03:19:58;;;;;;;3.70;3.40;;;22.60;94.60;;;;;;4956725;28;21333;-71
2023/08/26 03:22:27;;;;;;;4.03;3.53;;;22.60;94.60;;;;;;4962228;28;20481;-71
2023/08/26 03:24:53;;;;;;;5.47;3.70;;;22.60;94.50;;;;;;4946417;28;20898;-71
2023/08/26 03:27:21;;;;;;;5.50;3.47;;;22.50;94.50;;;;;;4930566;28;20898;-71
2023/08/26 03:29:47;;;;;;;3.63;3.30;;;22.50;94.50;;;;;;4946105;28;20673;-71
2023/08/26 03:32:13;;;;;;;3.70;2.77;;;22.50;94.50;;;;;;4965008;28;20438;-71
2023/08/26 03:34:42;;;;;;;3.13;2.90;;;22.50;94.50;;;;;;4951979;28;20959;-71
2023/08/26 03:37:10;;;;;;;3.87;3.57;;;22.50;94.50;;;;;;4952954;28;20422;-71
2023/08/26 03:39:38;;;;;;;3.43;2.70;;;22.50;94.50;;;;;;4953058;28;20528;-71
2023/08/26 03:42:11;;;;;;;3.07;2.83;;;22.40;94.40;;;;;;4968868;28;20449;-71
2023/08/26 03:44:37;;;;;;;3.13;2.93;;;22.50;94.40;;;;;;4952219;28;20521;-71
2023/08/26 03:47:05;;;;;;;3.97;3.57;;;22.40;94.40;;;;;;4952183;28;20434;-71
2023/08/26 03:49:31;;;;;;;3.40;3.10;;;22.40;94.40;;;;;;4952681;28;20485;-70
2023/08/26 03:51:57;;;;;;;4.10;3.10;;;22.40;94.40;;;;;;4952958;28;21121;-71
2023/08/26 03:54:24;;;;;;;3.50;3.13;;;22.40;94.30;;;;;;4969026;28;20816;-71
2023/08/26 03:56:50;;;;;;;6.53;3.07;;;22.40;94.30;;;;;;4936432;28;20433;-70
2023/08/26 03:59:16;;;;;;;3.30;3.10;;;22.40;94.30;;;;;;4951904;28;20897;-71
2023/08/26 04:01:41;;;;;;;3.63;3.33;;;22.40;94.30;;;;;;4969439;28;20506;-71
2023/08/26 04:04:08;;;;;;;3.10;2.80;;;22.40;94.30;;;;;;4969608;28;21129;-71
2023/08/26 04:06:34;;;;;;;3.60;3.30;;;22.40;94.30;;;;;;4968687;28;20889;-71
2023/08/26 04:09:03;;;;;;;4.00;3.70;;;22.40;94.30;;;;;;4968705;28;20441;-71
2023/08/26 04:11:29;;;;;;;3.80;3.60;;;22.30;94.20;;;;;;4952372;28;20425;-71
2023/08/26 04:13:56;;;;;;;3.47;3.17;;;22.30;94.20;;;;;;4968543;28;20870;-71
2023/08/26 04:16:22;;;;;;;3.70;3.40;;;22.30;94.10;;;;;;4952590;28;20429;-71
2023/08/26 04:18:48;;;;;;;3.73;3.40;;;22.30;94.10;;;;;;4968561;28;20936;-70
2023/08/26 04:21:15;;;;;;;3.67;3.33;;;22.30;94.10;;;;;;4969084;28;20884;-71
2023/08/26 04:23:41;;;;;;;3.57;3.27;;;22.30;94.10;;;;;;4969488;28;20787;-70
2023/08/26 04:26:07;;;;;;;4.10;3.77;;;22.30;94.00;;;;;;4952668;28;20457;-71
2023/08/26 04:28:34;;;;;;;3.50;3.20;;;22.30;94.00;;;;;;4952769;28;20723;-70
2023/08/26 04:31:02;;;;;;;3.90;3.50;;;22.30;93.90;;;;;;4939418;28;20461;-71
2023/08/26 04:33:30;;;;;;;5.30;4.30;;;22.20;93.90;;;;;;4937063;28;20800;-71
2023/08/26 04:35:57;;;;;;;3.60;3.30;;;22.20;93.90;;;;;;4936702;28;20468;-71
2023/08/26 04:38:23;;;;;;;4.13;3.30;;;22.20;93.80;;;;;;4933693;29;20450;-71
2023/08/26 04:40:52;;;;;;;3.47;3.17;;;22.20;93.80;;;;;;4932988;29;21189;-71
2023/08/26 04:43:18;;;;;;;3.97;3.67;;;22.20;93.80;;;;;;4946810;28;20876;-71
2023/08/26 04:45:45;;;;;;;3.37;3.17;;;22.20;93.70;;;;;;4946371;28;20454;-71
2023/08/26 04:48:11;;;;;;;3.60;3.30;;;22.20;93.70;;;;;;4949418;28;20189;-71
2023/08/26 04:50:41;;;;;;;3.47;3.17;;;22.20;93.70;;;;;;4967237;28;20493;-71
2023/08/26 04:53:13;;;;;;;3.60;3.30;;;22.10;93.60;;;;;;4948853;28;20465;-71
2023/08/26 04:55:40;;;;;;;3.27;2.93;;;22.10;93.50;;;;;;4949745;28;20461;-71
2023/08/26 04:58:14;;;;;;;4.90;3.40;;;22.10;93.50;;;;;;4950574;28;21089;-71
2023/08/26 05:00:41;;;;;;;4.07;3.40;;;22.10;93.40;;;;;;4965701;28;20568;-71
2023/08/26 05:03:09;;;;;;;5.27;3.60;;;22.10;93.30;;;;;;4967425;28;20582;-71
2023/08/26 05:05:35;;;;;;;5.63;3.27;;;22.10;93.30;;;;;;4949462;28;20472;-71
2023/08/26 05:08:04;;;;;;;3.93;3.10;;;22.10;93.30;;;;;;4965692;28;21066;-71
2023/08/26 05:10:30;;;;;;;4.10;3.43;;;22.10;93.20;;;;;;4934450;28;21273;-71
2023/08/26 05:12:57;;;;;;;3.20;3.00;;;22.00;93.20;;;;;;4966293;28;20407;-71
2023/08/26 05:15:23;;;;;;;3.63;3.10;;;22.00;93.10;;;;;;4949521;28;20454;-74
2023/08/26 05:17:51;;;;;;;3.70;3.20;;;22.00;93.00;;;;;;4933486;28;20464;-74
2023/08/26 05:20:19;;;;;;;3.87;3.07;;;22.00;93.00;;;;;;4949603;28;21035;-74
2023/08/26 05:22:48;;;;;;;5.27;3.50;;;22.00;93.00;;;;;;4949329;28;20429;-73
2023/08/26 05:25:14;;;;;;;3.47;3.20;;;22.00;93.00;;;;;;5008420;23;20511;-72
2023/08/26 05:27:40;;;;;;;4.67;3.33;;;22.00;93.00;;;;;;4958184;28;20447;-72
2023/08/26 05:30:08;;;;;;;4.13;3.63;;;22.00;93.00;;;;;;4920932;28;20465;-72
2023/08/26 05:32:41;;;;;;;3.63;3.33;;;22.00;92.90;;;;;;4966545;28;20435;-72
2023/08/26 05:35:10;;;;;;;2.80;2.60;;;22.00;92.80;;;;;;4982548;28;20433;-72
2023/08/26 05:37:38;;;;;;;5.30;3.40;;;21.90;92.80;;;;;;4966215;28;20964;-72
2023/08/26 05:40:05;;;;;;;4.17;3.13;;;21.90;92.80;;;;;;4966158;28;21128;-72
2023/08/26 05:42:30;;;;;;;2.83;2.63;;;21.90;92.80;;;;;;4965698;28;20441;-72
2023/08/26 05:45:01;;;;;;;3.07;2.87;;;21.90;92.70;;;;;;4965991;28;20441;-72
2023/08/26 05:47:28;;;;;;;5.77;2.73;;;21.90;92.70;;;;;;4963204;28;20464;-72
2023/08/26 05:49:58;;;;;;;3.70;3.10;;;21.90;92.70;;;;;;4962527;28;20556;-72
2023/08/26 05:52:27;;;;;;;4.10;3.10;;;21.90;92.60;;;;;;4946777;28;20541;-72
2023/08/26 05:54:53;;;;;;;5.90;3.07;;;21.90;92.60;;;;;;4963099;28;20536;-72
2023/08/26 05:57:19;;;;;;;3.00;2.70;;;21.90;92.60;;;;;;4964993;28;20182;-72
2023/08/26 05:59:51;;;;;;;3.33;2.97;;;21.90;92.60;;;;;;4946994;28;21132;-72
2023/08/26 06:02:17;;;;;;;3.37;2.83;;;21.90;92.60;;;;;;4962954;28;20450;-71
2023/08/26 06:04:43;;;;;;;4.40;3.43;;;21.80;92.60;;;;;;4948563;28;21037;-72
2023/08/26 06:07:11;;;;;;;4.30;2.83;;;21.80;92.50;;;;;;4959665;28;20434;-72
2023/08/26 06:09:37;;;;;;;3.50;3.00;;;21.80;92.40;;;;;;4977153;28;20232;-72
2023/08/26 06:12:06;;;;;;;2.90;2.70;;;21.80;92.40;;;;;;4956822;28;20438;-72
2023/08/26 06:14:34;;;;;;;4.90;3.00;;;21.80;92.40;;;;;;4962691;28;20449;-72
2023/08/26 06:17:02;;;;;;;5.20;2.90;;;21.80;92.50;;;;;;4962364;28;20452;-72
2023/08/26 06:19:28;;;;;;;3.23;2.97;;;21.80;92.40;;;;;;4962372;28;20524;-72
2023/08/26 06:21:57;;;;;;;4.07;2.83;;;21.80;92.40;;;;;;4946946;28;20540;-72
2023/08/26 06:24:23;;;;;;;3.40;2.63;;;21.70;92.30;;;;;;4963380;28;21250;-72
2023/08/26 06:26:50;;;;;;;3.17;2.97;;;21.70;92.30;;;;;;4964706;28;20806;-72
2023/08/26 06:29:19;;;;;;;3.83;3.23;;;21.70;92.30;;;;;;4961960;28;20464;-72
2023/08/26 06:31:45;;;;;;;3.83;2.67;;;21.70;92.30;;;;;;4945811;28;20275;-72
2023/08/26 06:34:13;;;;;;;2.70;2.50;;;21.70;92.10;;;;;;4946121;28;20893;-72
2023/08/26 06:36:40;;;;;;;7.73;2.83;;;21.70;92.00;;;;;;4962530;28;20417;-72
2023/08/26 06:39:08;;;;;;;3.23;2.70;;;21.70;92.00;;;;;;4962448;28;20564;-72
2023/08/26 06:41:37;;;;;;;3.30;2.60;;;21.70;92.00;;;;;;4962720;28;20428;-72
2023/08/26 06:44:08;;;;;;;2.87;2.67;;;21.70;92.00;;;;;;4945713;28;20477;-72
2023/08/26 06:46:34;;;;;;;2.63;2.43;;;21.70;92.00;;;;;;4945831;28;20816;-72
2023/08/26 06:49:00;;;;;;;2.33;2.13;;;21.60;91.90;;;;;;4961977;28;20476;-72
2023/08/26 06:51:26;;;;;;;4.43;2.70;;;21.60;91.90;;;;;;4946231;28;20417;-74
2023/08/26 06:53:52;;;;;;;2.70;2.50;;;21.60;92.00;;;;;;4946102;28;20849;-72
2023/08/26 06:56:18;;;;;;;3.80;3.00;;;21.60;92.00;;;;;;4961617;28;20441;-72
2023/08/26 06:58:44;;;;;;;3.50;3.00;;;21.60;92.00;;;;;;4945977;28;20446;-72
2023/08/26 07:01:11;;;;;;;2.97;2.70;;;21.60;91.90;;;;;;4961956;28;20497;-73
2023/08/26 07:03:39;;;;;;;2.87;2.57;;;21.60;91.90;;;;;;4945971;28;20438;-75
2023/08/26 07:06:05;;;;;;;7.33;2.87;;;21.60;91.90;;;;;;4961611;28;20899;-70
2023/08/26 07:08:31;;;;;;;3.60;2.33;;;21.60;91.90;;;;;;4963134;28;20860;-71
2023/08/26 07:10:59;;;;;;;3.37;2.80;;;21.60;91.80;;;;;;4962621;28;20535;-72
2023/08/26 07:13:28;;;;;;;2.90;2.70;;;21.60;91.80;;;;;;4945271;28;21039;-71
2023/08/26 07:15:54;;;;;;;3.30;2.20;;;21.60;91.80;;;;;;4960713;28;20302;-71
2023/08/26 07:18:20;;;;;;;2.90;2.70;;;21.60;91.70;;;;;;4949267;28;20414;-70
2023/08/26 07:20:46;;;;;;;3.30;2.80;;;21.60;91.70;;;;;;4963299;28;20899;-72
2023/08/26 07:23:12;;;;;;;2.60;2.40;;;21.60;91.70;;;;;;4961733;28;20773;-71
2023/08/26 07:25:39;;;;;;;4.90;2.53;;;21.60;91.70;;;;;;4945918;28;20469;-71
2023/08/26 07:28:08;;;;;;;2.73;2.53;;;21.50;91.60;;;;;;4963533;28;20464;-72
2023/08/26 07:30:36;;;;;;;2.47;2.27;;;21.60;91.60;;;;;;4959819;28;21262;-74
2023/08/26 07:33:02;;;;;;;2.80;2.60;;;21.60;91.60;;;;;;4965720;28;20554;-71
2023/08/26 07:35:28;;;;;;;3.43;2.83;;;21.60;91.60;;;;;;4966134;28;20818;-73
2023/08/26 07:37:59;;;;;;;2.47;2.37;;;21.50;91.50;;;;;;4970067;28;20564;-73
2023/08/26 07:40:26;;;;;;;4.17;2.63;;;21.50;91.50;;;;;;4964860;28;20474;-75
2023/08/26 07:42:52;;;;;;;4.70;2.70;;;21.50;91.50;;;;;;4964484;28;20804;-75
2023/08/26 07:45:20;;;;;;;2.70;2.50;;;21.50;91.50;;;;;;4946800;28;20962;-74
2023/08/26 07:47:47;;;;;;;3.00;2.80;;;21.50;91.50;;;;;;4961742;28;20415;-74
2023/08/26 07:50:16;;;;;;;3.30;3.00;;;21.50;91.50;;;;;;4962393;28;20461;-73
2023/08/26 07:52:42;;;;;;;5.50;2.70;;;21.50;91.50;;;;;;4964025;28;20906;-75
2023/08/26 07:55:09;;;;;;;4.40;3.20;;;21.50;91.50;;;;;;4962985;28;20481;-75
2023/08/26 07:57:34;;;;;;;3.43;3.17;;;21.50;91.50;;;;;;4945617;28;20437;-73
2023/08/26 08:00:06;;;;;;;5.87;3.27;;;21.50;91.60;;;;;;4962786;28;20448;-74
2023/08/26 08:02:38;;;;;;;2.87;2.67;;;21.50;91.50;;;;;;4962138;28;20830;-74
2023/08/26 08:05:04;;;;;;;4.20;3.00;;;21.50;91.60;;;;;;4962938;28;20437;-74
2023/08/26 08:07:30;;;;;;;3.10;2.90;;;21.50;91.60;;;;;;4945039;28;20433;-75
2023/08/26 08:09:56;;;;;;;3.47;2.77;;;21.50;91.60;;;;;;4980218;28;20571;-74
2023/08/26 08:12:22;;;;;;;2.37;2.10;;;21.50;91.90;;;;;;4982869;28;20430;-74
2023/08/26 08:14:50;;;;;;;2.57;2.37;;;21.50;91.60;;;;;;4975182;28;20824;-74
2023/08/26 08:17:16;;;;;;;3.30;2.40;;;21.50;91.50;;;;;;4963170;28;20190;-73
2023/08/26 08:19:49;;;;;;;3.50;2.97;;;21.50;91.50;;;;;;4964319;28;20528;-71
2023/08/26 08:22:32;;;;;;;2.57;2.20;;;21.60;91.60;;;;;;4949758;28;20710;-71
2023/08/26 08:25:02;;;;;;;2.70;2.50;;;21.50;91.50;;;;;;4948825;28;21068;-69
2023/08/26 08:27:28;;;;;;;3.43;2.80;;;21.60;91.60;;;;;;4966714;28;20409;-71
2023/08/26 08:29:54;;;;;;;2.90;2.70;;;21.60;91.60;;;;;;4965122;28;20971;-71
2023/08/26 08:32:21;;;;;;;2.77;2.57;;;21.60;91.60;;;;;;4933324;28;20429;-70
2023/08/26 08:34:52;;;;;;;2.97;2.50;;;21.60;91.60;;;;;;4964561;28;20472;-72
2023/08/26 08:37:18;;;;;;;2.77;2.57;;;21.60;91.60;;;;;;4965374;28;20421;-71
2023/08/26 08:39:45;;;;;;;2.30;2.10;;;21.60;91.60;;;;;;4949523;28;20417;-71
2023/08/26 08:42:17;;;;;;;3.43;3.10;;;21.60;91.50;;;;;;4949415;28;20549;-72
2023/08/26 08:44:48;;;;;;;2.83;2.63;;;21.60;91.50;;;;;;4965376;28;20462;-71
2023/08/26 08:47:16;;;;;;;3.80;3.07;;;21.60;91.50;;;;;;4965261;28;20484;-73
2023/08/26 08:49:45;;;;;;;2.30;2.10;;;21.60;91.40;;;;;;4954527;28;21117;-74
2023/08/26 08:52:11;;;;;;;2.67;2.47;;;21.60;91.30;;;;;;4948853;28;20426;-73
2023/08/26 08:54:37;;;;;;;2.83;2.50;;;21.70;91.30;;;;;;4964264;28;20565;-74
2023/08/26 08:57:04;;;;;;;3.73;2.50;;;21.70;91.30;;;;;;4945203;29;20810;-72
2023/08/26 08:59:35;;;;;;;3.03;2.23;;;21.70;91.30;;;;;;4945028;28;20475;-71
2023/08/26 09:02:03;;;;;;;2.70;2.50;;;21.70;91.20;;;;;;4965800;28;21295;-72
2023/08/26 09:04:30;;;;;;;2.60;2.40;;;21.70;91.20;;;;;;4949250;28;20507;-73
2023/08/26 09:06:57;;;;;;;2.50;2.30;;;21.70;91.20;;;;;;4966529;28;20434;-74
2023/08/26 09:09:25;;;;;;;4.97;2.70;;;21.70;91.10;;;;;;4965474;28;20481;-73
2023/08/26 09:11:54;;;;;;;2.83;2.43;;;21.70;91.00;;;;;;4949498;28;20426;-71
2023/08/26 09:14:20;;;;;;;2.70;2.50;;;21.80;91.10;;;;;;4964839;28;21024;-72
2023/08/26 09:16:46;;;;;;;4.27;2.77;;;21.80;91.00;;;;;;4964015;28;20452;-70
2023/08/26 09:19:13;;;;;;;3.07;2.77;;;21.80;91.00;;;;;;4965649;28;20516;-73
2023/08/26 09:21:44;;;;;;;4.03;2.70;;;21.80;90.80;;;;;;4947889;28;20434;-73
2023/08/26 09:24:15;;;;;;;3.27;2.33;;;21.90;90.90;;;;;;4945993;28;20445;-72
2023/08/26 09:26:43;;;;;;;2.60;2.40;;;21.90;91.00;;;;;;4963445;28;20524;-72
2023/08/26 09:29:19;;;;;;;2.70;2.50;;;21.90;91.00;;;;;;4959063;28;20453;-71
2023/08/26 09:31:46;;;;;;;2.70;2.50;;;21.90;90.90;;;;;;4963848;28;20421;-71
2023/08/26 09:34:23;;;;;;;2.97;2.70;;;21.90;90.90;;;;;;4947028;28;20453;-71
2023/08/26 09:36:54;;;;;;;4.50;2.70;;;21.90;90.90;;;;;;4964406;28;20458;-74
2023/08/26 09:39:22;;;;;;;3.90;2.87;;;22.00;90.80;;;;;;4964439;28;20462;-72
2023/08/26 09:41:54;;;;;;;5.43;3.00;;;22.00;90.70;;;;;;4965380;28;20434;-71
2023/08/26 09:44:21;;;;;;;4.63;2.50;;;22.00;90.50;;;;;;4949932;28;20450;-71
2023/08/26 09:46:47;;;;;;;4.13;3.07;;;22.10;90.40;;;;;;4965022;28;20426;-72
2023/08/26 09:49:15;;;;;;;2.67;2.47;;;22.10;90.10;;;;;;4997757;28;20454;-72
2023/08/26 09:51:50;;;;;;;2.80;2.50;;;22.10;90.00;;;;;;4965413;28;20509;-72
2023/08/26 09:54:21;;;;;;;2.50;2.37;;;22.20;89.60;;;;;;4964885;28;20459;-72
2023/08/26 09:56:48;;;;;;;2.70;2.30;;;22.20;89.90;;;;;;4996896;28;20418;-74
2023/08/26 09:59:15;;;;;;;16.60;3.37;;;22.20;89.80;;;;;;4980244;28;20735;-72
2023/08/26 10:01:42;;;;;;;3.33;2.70;;;22.30;90.20;;;;;;4964294;28;20434;-72
2023/08/26 10:04:13;;;;;;;3.33;2.77;;;22.30;89.30;;;;;;4964417;28;20940;-73
2023/08/26 10:06:48;;;;;;;2.80;2.60;;;22.40;89.20;;;;;;4981080;28;21218;-72
2023/08/26 10:09:39;;;;;;;3.13;2.80;;;22.40;89.20;;;;;;4964483;28;20473;-72
2023/08/26 10:12:10;;;;;;;3.30;3.00;;;22.50;89.70;;;;;;4965956;28;20526;-72
2023/08/26 10:14:40;;;;;;;3.93;2.50;;;22.50;89.90;;;;;;4979767;28;20716;-72
2023/08/26 10:17:10;;;;;;;3.40;2.50;;;22.50;89.90;;;;;;4963978;28;20434;-72
2023/08/26 10:19:41;;;;;;;2.77;2.57;;;22.60;89.70;;;;;;4965588;28;21255;-72
2023/08/26 10:22:10;;;;;;;4.10;2.67;;;22.60;89.60;;;;;;4964398;28;20430;-72
2023/08/26 10:24:40;;;;;;;3.40;3.10;;;22.60;89.60;;;;;;4996586;28;20500;-71
2023/08/26 10:27:07;;;;;;;2.90;2.70;;;22.70;89.90;;;;;;4965197;28;20650;-72
2023/08/26 10:29:35;;;;;;;3.07;2.50;;;22.70;89.30;;;;;;4963781;28;20518;-71
2023/08/26 10:32:22;;;;;;;2.37;2.17;;;22.70;89.30;;;;;;4964264;28;20458;-72
2023/08/26 10:34:58;;;;;;;2.80;2.60;;;22.70;89.00;;;;;;4979889;28;20450;-72
2023/08/26 10:37:30;;;;;;;2.50;2.30;;;22.70;89.00;;;;;;4980332;28;20422;-71
2023/08/26 10:40:09;;;;;;;3.90;2.60;;;22.80;88.60;;;;;;4965590;28;20411;-72
2023/08/26 10:42:38;;;;;;;2.97;2.77;;;22.80;88.80;;;;;;4962611;28;20410;-72
2023/08/26 10:45:14;;;;;;;2.57;2.47;;;22.80;88.60;;;;;;4963677;28;20469;-72
2023/08/26 10:47:53;;;;;;;2.97;2.77;;;22.90;88.60;;;;;;4963345;28;20465;-72
2023/08/26 10:50:22;;;;;;;3.00;2.80;;;22.90;88.60;;;;;;4962826;28;20477;-72
2023/08/26 10:52:58;;;;;;;3.20;3.00;;;22.90;88.00;;;;;;4964826;28;20403;-72
2023/08/26 10:55:33;;;;;;;3.83;3.53;;;22.90;87.60;;;;;;4948032;28;20449;-70
2023/08/26 10:58:12;;;;;;;4.63;4.33;;;22.90;87.90;;;;;;4932060;28;20431;-72
2023/08/26 11:00:48;;;;;;;5.20;4.70;;;23.00;87.80;;;;;;4947776;28;20434;-72
2023/08/26 11:03:18;;;;;;;4.63;4.23;;;23.00;87.70;;;;;;4947795;28;20446;-72
2023/08/26 11:05:46;;;;;;;4.77;4.37;;;23.00;87.70;;;;;;4947314;28;20445;-72
2023/08/26 11:08:15;;;;;;;4.60;4.30;;;23.10;88.00;;;;;;4946737;28;20449;-71
2023/08/26 11:10:41;;;;;;;5.33;3.90;;;23.10;88.00;;;;;;5054703;23;21334;-75
2023/08/26 11:13:09;;;;;;;4.33;3.63;;;23.10;87.90;;;;;;5004508;28;20430;-75
2023/08/26 11:15:42;;;;;;;5.73;5.23;;;23.10;87.70;;;;;;5004284;28;20443;-75
2023/08/26 11:18:11;;;;;;;5.17;4.70;;;23.20;87.90;;;;;;5022791;28;20486;-73
2023/08/26 11:20:38;;;;;;;6.90;6.20;;;23.20;88.40;;;;;;5004271;28;20415;-74
2023/08/26 11:23:07;;;;;;;5.10;4.70;;;23.20;88.00;;;;;;5004320;28;20413;-74
2023/08/26 11:25:37;;;;;;;6.30;5.80;;;23.20;87.80;;;;;;5021347;28;20447;-75
2023/08/26 11:28:04;;;;;;;5.30;4.80;;;23.30;88.00;;;;;;5004346;28;21274;-73
2023/08/26 11:30:37;;;;;;;5.17;4.67;;;23.30;87.70;;;;;;5004193;28;20511;-74
2023/08/26 11:33:21;;;;;;;7.50;5.50;;;23.30;87.70;;;;;;4987753;28;20507;-75
2023/08/26 11:35:48;;;;;;;4.73;4.30;;;23.30;87.50;;;;;;5021681;28;21132;-75
2023/08/26 11:38:18;;;;;;;5.03;4.53;;;23.40;87.60;;;;;;5003875;28;20411;-74
2023/08/26 11:40:45;;;;;;;5.10;4.70;;;23.40;87.70;;;;;;4988015;28;20535;-75
2023/08/26 11:43:16;;;;;;;4.83;4.43;;;23.40;87.30;;;;;;4984166;28;20400;-75
2023/08/26 11:45:45;;;;;;;4.63;4.23;;;23.50;87.50;;;;;;4984458;28;20451;-75
2023/08/26 11:48:12;;;;;;;4.30;4.00;;;23.50;87.20;;;;;;4983590;28;20961;-74
2023/08/26 11:50:39;;;;;;;5.10;4.70;;;23.50;86.90;;;;;;5001924;28;20780;-75
2023/08/26 11:53:05;;;;;;;4.60;4.20;;;23.50;86.60;;;;;;4969576;28;20554;-74
2023/08/26 11:55:35;;;;;;;4.30;4.00;;;23.50;86.90;;;;;;4956593;28;20542;-75
2023/08/26 11:58:02;;;;;;;4.20;3.90;;;23.60;86.30;;;;;;4972327;28;20423;-75
2023/08/26 12:00:29;;;;;;;4.67;4.27;;;23.60;86.30;;;;;;4972204;28;20826;-75
2023/08/26 12:03:03;;;;;;;3.60;3.30;;;23.60;85.60;;;;;;5005904;28;20416;-74
2023/08/26 12:05:48;;;;;;;4.70;4.07;;;23.60;85.60;;;;;;4972123;28;20466;-74
2023/08/26 12:08:19;;;;;;;4.20;3.90;;;23.70;85.60;;;;;;4988274;28;20522;-75
2023/08/26 12:10:49;;;;;;;4.37;3.97;;;23.70;85.80;;;;;;4956316;28;20447;-75
2023/08/26 12:13:16;;;;;;;3.87;3.53;;;23.70;85.60;;;;;;4991445;28;20418;-75
2023/08/26 12:15:42;;;;;;;3.73;3.43;;;23.70;85.90;;;;;;4991297;28;20463;-74
2023/08/26 12:18:11;;;;;;;3.83;3.53;;;23.80;85.90;;;;;;5007459;28;20410;-75
2023/08/26 12:20:44;;;;;;;4.40;4.10;;;23.80;85.70;;;;;;5007532;28;20438;-74
2023/08/26 12:23:10;;;;;;;3.97;3.57;;;23.80;86.10;;;;;;4991703;28;20747;-75
2023/08/26 12:25:38;;;;;;;6.10;4.73;;;23.80;86.30;;;;;;4991259;28;20530;-74
2023/08/26 12:28:17;;;;;;;4.40;4.00;;;23.90;86.10;;;;;;5007328;28;20990;-73
2023/08/26 12:30:45;;;;;;;4.10;3.80;;;23.90;86.10;;;;;;5006970;28;20457;-75
2023/08/26 12:33:12;;;;;;;3.97;3.67;;;23.90;85.80;;;;;;4990995;28;20502;-75
2023/08/26 12:35:39;;;;;;;4.83;4.43;;;23.90;85.10;;;;;;5006998;28;20963;-74
2023/08/26 12:38:05;;;;;;;3.80;3.50;;;23.90;85.50;;;;;;5007477;28;20396;-75
2023/08/26 12:40:40;;;;;;;4.80;4.40;;;24.00;85.60;;;;;;4994758;28;21035;-75
2023/08/26 12:43:08;;;;;;;4.10;3.80;;;24.00;85.60;;;;;;4987697;28;20459;-74
2023/08/26 12:45:35;;;;;;;4.23;3.83;;;24.00;85.00;;;;;;4996759;28;20447;-75
2023/08/26 12:48:05;;;;;;;3.93;3.63;;;24.00;85.30;;;;;;5007474;28;20442;-75
2023/08/26 12:50:34;;;;;;;3.60;3.33;;;24.10;85.80;;;;;;4985354;28;20479;-75
2023/08/26 12:53:02;;;;;;;4.00;3.03;;;24.10;85.50;;;;;;5001627;28;20918;-75
2023/08/26 12:55:28;;;;;;;4.50;3.50;;;24.10;85.60;;;;;;5006980;28;20545;-74